sensor_id;sensor_type;location;lat;lon;timestamp;pressure;altitude;pressure_sealevel;temperature;humidity
22657;BME280;11495;55.610;12.100;2022-09-23T00:00:44;101670.91;;;6.95;0.00
22657;BME280;11495;55.610;12.100;2022-09-23T00:03:09;101661.41;;;6.97;0.00
22657;BME280;11495;55.610;12.100;2022-09-23T00:05:35;101655.88;;;7.04;0.00
22657;BME280;11495;55.610;12.100;2022-09-23T00:08:02;101662.38;;;7.03;0.00
22657;BME280;11495;55.610;12.100;2022-09-23T00:10:27;101650.75;;;7.08;0.00
22657;BME280;11495;55.610;12.100;2022-09-23T00:12:55;101640.81;;;7.13;0.00
22657;BME280;11495;55.610;12.100;2022-09-23T00:15:20;101642.47;;;7.14;0.00
22657;BME280;11495;55.610;12.100;2022-09-23T00:17:45;101636.00;;;7.09;0.00
22657;BME280;11495;55.610;12.100;2022-09-23T00:20:11;101638.25;;;7.30;0.00
22657;BME280;11495;55.610;12.100;2022-09-23T00:22:37;101633.50;;;7.37;0.00
22657;BME280;11495;55.610;12.100;2022-09-23T00:25:03;101625.41;;;7.42;0.00
22657;BME280;11495;55.610;12.100;2022-09-23T00:27:29;101619.13;;;7.53;0.00
22657;BME280;11495;55.610;12.100;2022-09-23T00:29:55;101619.38;;;7.64;0.00
22657;BME280;11495;55.610;12.100;2022-09-23T00:32:20;101614.16;;;7.62;0.00
22657;BME280;11495;55.610;12.100;2022-09-23T00:34:45;101612.00;;;7.76;0.00
22657;BME280;11495;55.610;12.100;2022-09-23T00:37:12;101595.34;;;7.89;0.00
22657;BME280;11495;55.610;12.100;2022-09-23T00:39:38;101595.09;;;7.91;0.00
22657;BME280;11495;55.610;12.100;2022-09-23T00:42:03;101588.69;;;7.97;0.00
22657;BME280;11495;55.610;12.100;2022-09-23T00:47:17;101574.97;;;8.08;0.00
22657;BME280;11495;55.610;12.100;2022-09-23T00:49:45;101570.56;;;8.07;0.00
22657;BME280;11495;55.610;12.100;2022-09-23T00:52:12;101566.03;;;8.01;0.00
22657;BME280;11495;55.610;12.100;2022-09-23T00:54:39;101561.75;;;8.05;0.00
22657;BME280;11495;55.610;12.100;2022-09-23T00:57:05;101562.94;;;8.09;0.00
22657;BME280;11495;55.610;12.100;2022-09-23T00:59:33;101552.22;;;8.08;0.00
22657;BME280;11495;55.610;12.100;2022-09-23T01:01:59;101546.75;;;7.96;0.00
22657;BME280;11495;55.610;12.100;2022-09-23T01:04:26;101542.47;;;7.88;0.00
22657;BME280;11495;55.610;12.100;2022-09-23T01:06:52;101535.34;;;7.76;0.00
22657;BME280;11495;55.610;12.100;2022-09-23T01:09:17;101534.87;;;7.67;0.00
22657;BME280;11495;55.610;12.100;2022-09-23T01:11:46;101535.59;;;7.63;0.00
22657;BME280;11495;55.610;12.100;2022-09-23T01:19:19;101524.03;;;7.60;0.00
22657;BME280;11495;55.610;12.100;2022-09-23T01:21:52;101523.56;;;7.64;0.00
22657;BME280;11495;55.610;12.100;2022-09-23T01:24:42;101516.31;;;7.57;0.00
22657;BME280;11495;55.610;12.100;2022-09-23T01:27:28;101513.94;;;7.49;0.00
22657;BME280;11495;55.610;12.100;2022-09-23T01:30:08;101507.72;;;7.42;0.00
22657;BME280;11495;55.610;12.100;2022-09-23T01:40:05;101491.69;;;7.22;0.00
22657;BME280;11495;55.610;12.100;2022-09-23T01:42:36;101489.53;;;7.13;0.00
22657;BME280;11495;55.610;12.100;2022-09-23T01:45:08;101486.06;;;7.06;0.00
22657;BME280;11495;55.610;12.100;2022-09-23T01:47:41;101495.56;;;7.03;0.00
22657;BME280;11495;55.610;12.100;2022-09-23T01:50:29;101488.06;;;6.98;0.00
22657;BME280;11495;55.610;12.100;2022-09-23T01:53:11;101483.19;;;6.89;0.00
22657;BME280;11495;55.610;12.100;2022-09-23T01:55:41;101483.28;;;6.94;0.00
22657;BME280;11495;55.610;12.100;2022-09-23T01:58:10;101478.22;;;6.97;0.00
22657;BME280;11495;55.610;12.100;2022-09-23T02:00:38;101476.41;;;7.03;0.00
22657;BME280;11495;55.610;12.100;2022-09-23T02:03:18;101473.94;;;7.13;0.00
22657;BME280;11495;55.610;12.100;2022-09-23T02:05:47;101463.00;;;7.13;0.00
22657;BME280;11495;55.610;12.100;2022-09-23T02:08:15;101469.19;;;7.09;0.00
22657;BME280;11495;55.610;12.100;2022-09-23T02:10:45;101463.13;;;7.07;0.00
22657;BME280;11495;55.610;12.100;2022-09-23T02:13:19;101459.44;;;7.13;0.00
22657;BME280;11495;55.610;12.100;2022-09-23T02:15:52;101462.78;;;7.15;0.00
22657;BME280;11495;55.610;12.100;2022-09-23T02:18:20;101449.91;;;7.15;0.00
22657;BME280;11495;55.610;12.100;2022-09-23T02:20:47;101449.69;;;7.17;0.00
22657;BME280;11495;55.610;12.100;2022-09-23T02:23:18;101447.19;;;7.15;0.00
22657;BME280;11495;55.610;12.100;2022-09-23T02:28:15;101445.38;;;7.09;0.00
22657;BME280;11495;55.610;12.100;2022-09-23T02:30:54;101442.91;;;7.08;0.00
22657;BME280;11495;55.610;12.100;2022-09-23T02:33:30;101446.94;;;7.05;0.00
22657;BME280;11495;55.610;12.100;2022-09-23T02:36:10;101442.75;;;7.02;0.00
22657;BME280;11495;55.610;12.100;2022-09-23T02:38:43;101437.78;;;6.99;0.00
22657;BME280;11495;55.610;12.100;2022-09-23T02:41:15;101447.53;;;6.95;0.00
22657;BME280;11495;55.610;12.100;2022-09-23T02:43:56;101432.16;;;6.83;0.00
22657;BME280;11495;55.610;12.100;2022-09-23T02:46:24;101443.94;;;6.71;0.00
22657;BME280;11495;55.610;12.100;2022-09-23T02:48:52;101432.38;;;6.69;0.00
22657;BME280;11495;55.610;12.100;2022-09-23T02:51:20;101429.06;;;6.67;0.00
22657;BME280;11495;55.610;12.100;2022-09-23T02:53:49;101430.34;;;6.65;0.00
22657;BME280;11495;55.610;12.100;2022-09-23T02:56:16;101428.06;;;6.62;0.00
22657;BME280;11495;55.610;12.100;2022-09-23T02:58:43;101430.22;;;6.60;0.00
22657;BME280;11495;55.610;12.100;2022-09-23T03:03:53;101429.63;;;6.58;0.00
22657;BME280;11495;55.610;12.100;2022-09-23T03:06:25;101417.03;;;6.57;0.00
22657;BME280;11495;55.610;12.100;2022-09-23T03:09:03;101407.28;;;6.49;0.00
22657;BME280;11495;55.610;12.100;2022-09-23T03:11:30;101415.31;;;6.44;0.00
22657;BME280;11495;55.610;12.100;2022-09-23T03:14:15;101414.81;;;6.35;0.00
22657;BME280;11495;55.610;12.100;2022-09-23T03:16:50;101413.88;;;6.30;0.00
22657;BME280;11495;55.610;12.100;2022-09-23T03:19:25;101409.84;;;6.32;0.00
22657;BME280;11495;55.610;12.100;2022-09-23T03:22:01;101406.03;;;6.33;0.00
22657;BME280;11495;55.610;12.100;2022-09-23T03:24:28;101403.06;;;6.35;0.00
22657;BME280;11495;55.610;12.100;2022-09-23T03:26:55;101396.78;;;6.34;0.00
22657;BME280;11495;55.610;12.100;2022-09-23T03:29:24;101390.34;;;6.29;0.00
22657;BME280;11495;55.610;12.100;2022-09-23T03:31:49;101388.31;;;6.24;0.00
22657;BME280;11495;55.610;12.100;2022-09-23T03:34:20;101386.06;;;6.21;0.00
22657;BME280;11495;55.610;12.100;2022-09-23T03:39:34;101378.66;;;6.10;0.00
22657;BME280;11495;55.610;12.100;2022-09-23T03:42:05;101380.78;;;6.08;0.00
22657;BME280;11495;55.610;12.100;2022-09-23T03:44:35;101378.19;;;6.13;0.00
22657;BME280;11495;55.610;12.100;2022-09-23T03:47:03;101371.91;;;6.12;0.00
22657;BME280;11495;55.610;12.100;2022-09-23T03:49:31;101365.59;;;6.12;0.00
22657;BME280;11495;55.610;12.100;2022-09-23T03:51:58;101369.37;;;6.11;0.00
22657;BME280;11495;55.610;12.100;2022-09-23T03:54:24;101367.97;;;6.08;0.00
22657;BME280;11495;55.610;12.100;2022-09-23T03:56:49;101375.91;;;6.10;0.00
22657;BME280;11495;55.610;12.100;2022-09-23T03:59:15;101369.63;;;6.09;0.00
22657;BME280;11495;55.610;12.100;2022-09-23T04:01:41;101370.94;;;6.07;0.00
22657;BME280;11495;55.610;12.100;2022-09-23T04:04:07;101365.69;;;6.05;0.00
22657;BME280;11495;55.610;12.100;2022-09-23T04:06:33;101368.03;;;6.02;0.00
22657;BME280;11495;55.610;12.100;2022-09-23T04:08:58;101359.50;;;5.98;0.00
22657;BME280;11495;55.610;12.100;2022-09-23T04:11:25;101359.13;;;5.95;0.00
22657;BME280;11495;55.610;12.100;2022-09-23T04:13:50;101354.03;;;5.98;0.00
22657;BME280;11495;55.610;12.100;2022-09-23T04:16:15;101342.28;;;5.98;0.00
22657;BME280;11495;55.610;12.100;2022-09-23T04:18:40;101354.03;;;5.98;0.00
22657;BME280;11495;55.610;12.100;2022-09-23T04:21:06;101347.03;;;6.02;0.00
22657;BME280;11495;55.610;12.100;2022-09-23T04:23:31;101341.25;;;6.10;0.00
22657;BME280;11495;55.610;12.100;2022-09-23T04:25:56;101333.56;;;6.19;0.00
22657;BME280;11495;55.610;12.100;2022-09-23T04:28:22;101337.75;;;6.33;0.00
22657;BME280;11495;55.610;12.100;2022-09-23T04:30:47;101329.56;;;6.33;0.00
22657;BME280;11495;55.610;12.100;2022-09-23T04:33:13;101329.06;;;6.36;0.00
22657;BME280;11495;55.610;12.100;2022-09-23T04:35:39;101325.91;;;6.51;0.00
22657;BME280;11495;55.610;12.100;2022-09-23T04:38:05;101323.75;;;6.53;0.00
22657;BME280;11495;55.610;12.100;2022-09-23T04:40:31;101317.72;;;6.63;0.00
22657;BME280;11495;55.610;12.100;2022-09-23T04:42:56;101315.00;;;6.63;0.00
22657;BME280;11495;55.610;12.100;2022-09-23T04:45:22;101316.41;;;6.65;0.00
22657;BME280;11495;55.610;12.100;2022-09-23T04:47:47;101318.91;;;6.67;0.00
22657;BME280;11495;55.610;12.100;2022-09-23T04:50:12;101316.03;;;6.62;0.00
22657;BME280;11495;55.610;12.100;2022-09-23T04:52:37;101312.59;;;6.55;0.00
22657;BME280;11495;55.610;12.100;2022-09-23T04:55:03;101302.38;;;6.50;0.00
22657;BME280;11495;55.610;12.100;2022-09-23T04:57:28;101301.09;;;6.64;0.00
22657;BME280;11495;55.610;12.100;2022-09-23T04:59:53;101304.75;;;6.82;0.00
22657;BME280;11495;55.610;12.100;2022-09-23T05:02:21;101303.28;;;7.02;0.00
22657;BME280;11495;55.610;12.100;2022-09-23T05:04:46;101299.91;;;7.36;0.00
22657;BME280;11495;55.610;12.100;2022-09-23T05:07:11;101303.81;;;7.40;0.00
22657;BME280;11495;55.610;12.100;2022-09-23T05:09:37;101301.41;;;7.43;0.00
22657;BME280;11495;55.610;12.100;2022-09-23T05:12:02;101303.94;;;7.45;0.00
22657;BME280;11495;55.610;12.100;2022-09-23T05:14:28;101300.00;;;7.41;0.00
22657;BME280;11495;55.610;12.100;2022-09-23T05:16:53;101294.59;;;7.29;0.00
22657;BME280;11495;55.610;12.100;2022-09-23T05:19:18;101294.22;;;7.25;0.00
22657;BME280;11495;55.610;12.100;2022-09-23T05:21:44;101299.69;;;7.25;0.00
22657;BME280;11495;55.610;12.100;2022-09-23T05:24:10;101287.66;;;7.26;0.00
22657;BME280;11495;55.610;12.100;2022-09-23T05:26:36;101294.22;;;7.25;0.00
22657;BME280;11495;55.610;12.100;2022-09-23T05:29:02;101289.56;;;7.26;0.00
22657;BME280;11495;55.610;12.100;2022-09-23T05:31:28;101285.56;;;7.28;0.00
22657;BME280;11495;55.610;12.100;2022-09-23T05:33:55;101284.81;;;7.33;0.00
22657;BME280;11495;55.610;12.100;2022-09-23T05:36:21;101288.94;;;7.36;0.00
22657;BME280;11495;55.610;12.100;2022-09-23T05:38:48;101281.19;;;7.44;0.00
22657;BME280;11495;55.610;12.100;2022-09-23T05:41:14;101278.91;;;7.53;0.00
22657;BME280;11495;55.610;12.100;2022-09-23T05:43:40;101268.06;;;7.58;0.00
22657;BME280;11495;55.610;12.100;2022-09-23T05:46:06;101257.56;;;7.83;0.00
22657;BME280;11495;55.610;12.100;2022-09-23T05:48:32;101264.72;;;8.01;0.00
22657;BME280;11495;55.610;12.100;2022-09-23T05:50:58;101258.19;;;8.19;0.00
22657;BME280;11495;55.610;12.100;2022-09-23T05:53:24;101245.16;;;8.43;0.00
22657;BME280;11495;55.610;12.100;2022-09-23T05:55:49;101250.97;;;8.63;0.00
22657;BME280;11495;55.610;12.100;2022-09-23T05:58:15;101247.94;;;8.82;0.00
22657;BME280;11495;55.610;12.100;2022-09-23T06:00:40;101247.59;;;8.95;0.00
22657;BME280;11495;55.610;12.100;2022-09-23T06:03:16;101248.22;;;9.02;0.00
22657;BME280;11495;55.610;12.100;2022-09-23T06:05:42;101246.69;;;9.11;0.00
22657;BME280;11495;55.610;12.100;2022-09-23T06:08:08;101235.00;;;9.21;0.00
22657;BME280;11495;55.610;12.100;2022-09-23T06:10:40;101241.97;;;9.28;0.00
22657;BME280;11495;55.610;12.100;2022-09-23T06:13:06;101237.94;;;9.36;0.00
22657;BME280;11495;55.610;12.100;2022-09-23T06:15:32;101228.41;;;9.44;0.00
22657;BME280;11495;55.610;12.100;2022-09-23T06:17:58;101224.88;;;9.48;0.00
22657;BME280;11495;55.610;12.100;2022-09-23T06:20:23;101220.84;;;9.56;0.00
22657;BME280;11495;55.610;12.100;2022-09-23T06:22:48;101226.13;;;9.63;0.00
22657;BME280;11495;55.610;12.100;2022-09-23T06:25:14;101220.13;;;9.66;0.00
22657;BME280;11495;55.610;12.100;2022-09-23T06:27:39;101215.50;;;9.71;0.00
22657;BME280;11495;55.610;12.100;2022-09-23T06:30:04;101219.16;;;9.77;0.00
22657;BME280;11495;55.610;12.100;2022-09-23T06:32:30;101209.28;;;9.81;0.00
22657;BME280;11495;55.610;12.100;2022-09-23T06:34:56;101207.16;;;9.88;0.00
22657;BME280;11495;55.610;12.100;2022-09-23T06:37:21;101205.28;;;9.94;0.00
22657;BME280;11495;55.610;12.100;2022-09-23T06:39:48;101205.88;;;10.01;0.00
22657;BME280;11495;55.610;12.100;2022-09-23T06:42:13;101199.87;;;10.04;0.00
22657;BME280;11495;55.610;12.100;2022-09-23T06:44:49;101194.94;;;10.06;0.00
22657;BME280;11495;55.610;12.100;2022-09-23T06:47:14;101196.37;;;10.13;0.00
22657;BME280;11495;55.610;12.100;2022-09-23T06:49:39;101187.94;;;10.25;0.00
22657;BME280;11495;55.610;12.100;2022-09-23T06:52:05;101185.81;;;10.32;0.00
22657;BME280;11495;55.610;12.100;2022-09-23T06:54:30;101177.09;;;10.46;0.00
22657;BME280;11495;55.610;12.100;2022-09-23T06:56:55;101173.88;;;10.59;0.00
22657;BME280;11495;55.610;12.100;2022-09-23T06:59:21;101177.78;;;10.73;0.00
22657;BME280;11495;55.610;12.100;2022-09-23T07:01:46;101169.06;;;10.86;0.00
22657;BME280;11495;55.610;12.100;2022-09-23T07:04:12;101165.53;;;10.96;0.00
22657;BME280;11495;55.610;12.100;2022-09-23T07:06:38;101162.53;;;11.08;0.00
22657;BME280;11495;55.610;12.100;2022-09-23T07:09:04;101163.13;;;11.25;0.00
22657;BME280;11495;55.610;12.100;2022-09-23T07:11:29;101159.28;;;11.41;0.00
22657;BME280;11495;55.610;12.100;2022-09-23T07:13:55;101145.03;;;11.60;0.00
22657;BME280;11495;55.610;12.100;2022-09-23T07:16:20;101140.59;;;11.74;0.00
22657;BME280;11495;55.610;12.100;2022-09-23T07:18:46;101149.44;;;11.91;0.00
22657;BME280;11495;55.610;12.100;2022-09-23T07:21:12;101152.22;;;12.01;0.00
22657;BME280;11495;55.610;12.100;2022-09-23T07:23:39;101141.72;;;12.14;0.00
22657;BME280;11495;55.610;12.100;2022-09-23T07:26:04;101142.22;;;12.31;0.00
22657;BME280;11495;55.610;12.100;2022-09-23T07:28:29;101138.37;;;12.32;0.00
22657;BME280;11495;55.610;12.100;2022-09-23T07:30:56;101153.25;;;12.36;0.00
22657;BME280;11495;55.610;12.100;2022-09-23T07:33:21;101163.19;;;12.37;0.00
22657;BME280;11495;55.610;12.100;2022-09-23T07:35:46;101175.59;;;12.45;0.00
22657;BME280;11495;55.610;12.100;2022-09-23T07:38:12;101180.25;;;12.49;0.00
22657;BME280;11495;55.610;12.100;2022-09-23T07:40:37;101200.69;;;12.58;0.00
22657;BME280;11495;55.610;12.100;2022-09-23T07:43:04;101235.94;;;12.72;0.00
22657;BME280;11495;55.610;12.100;2022-09-23T07:45:30;101277.06;;;12.83;0.00
22657;BME280;11495;55.610;12.100;2022-09-23T07:47:57;101314.03;;;12.92;0.00
22657;BME280;11495;55.610;12.100;2022-09-23T07:50:23;101364.25;;;13.05;0.00
22657;BME280;11495;55.610;12.100;2022-09-23T07:52:48;101427.50;;;13.21;0.00
22657;BME280;11495;55.610;12.100;2022-09-23T07:55:17;101479.69;;;13.43;0.00
22657;BME280;11495;55.610;12.100;2022-09-23T07:57:43;101525.56;;;13.60;0.00
22657;BME280;11495;55.610;12.100;2022-09-23T08:00:09;101578.63;;;13.82;0.00
22657;BME280;11495;55.610;12.100;2022-09-23T08:02:34;101633.31;;;14.05;0.00
22657;BME280;11495;55.610;12.100;2022-09-23T08:05:00;101690.03;;;14.23;0.00
22657;BME280;11495;55.610;12.100;2022-09-23T08:07:25;101760.06;;;14.49;0.00
22657;BME280;11495;55.610;12.100;2022-09-23T08:09:50;101822.88;;;14.59;0.00
22657;BME280;11495;55.610;12.100;2022-09-23T08:12:16;101900.97;;;14.66;0.00
22657;BME280;11495;55.610;12.100;2022-09-23T08:14:42;101965.22;;;14.78;0.00
22657;BME280;11495;55.610;12.100;2022-09-23T08:17:08;102020.59;;;14.78;0.00
22657;BME280;11495;55.610;12.100;2022-09-23T08:19:33;102084.03;;;14.75;0.00
22657;BME280;11495;55.610;12.100;2022-09-23T08:21:59;102125.84;;;14.78;0.00
22657;BME280;11495;55.610;12.100;2022-09-23T08:24:24;102163.00;;;14.82;0.00
22657;BME280;11495;55.610;12.100;2022-09-23T08:26:50;102178.03;;;15.07;0.00
22657;BME280;11495;55.610;12.100;2022-09-23T08:29:18;102187.00;;;15.39;0.00
22657;BME280;11495;55.610;12.100;2022-09-23T08:31:43;102213.97;;;15.75;0.00
22657;BME280;11495;55.610;12.100;2022-09-23T08:34:12;102258.09;;;15.91;0.00
22657;BME280;11495;55.610;12.100;2022-09-23T08:36:40;102307.50;;;16.05;0.00
22657;BME280;11495;55.610;12.100;2022-09-23T08:39:06;102375.81;;;16.11;0.00
22657;BME280;11495;55.610;12.100;2022-09-23T08:41:42;102430.72;;;16.04;0.00
22657;BME280;11495;55.610;12.100;2022-09-23T08:44:20;102446.84;;;16.01;0.00
22657;BME280;11495;55.610;12.100;2022-09-23T08:47:02;102490.56;;;15.74;0.00
22657;BME280;11495;55.610;12.100;2022-09-23T08:49:33;102490.56;;;15.79;0.00
22657;BME280;11495;55.610;12.100;2022-09-23T08:52:13;102491.72;;;15.88;0.00
22657;BME280;11495;55.610;12.100;2022-09-23T08:54:42;102510.31;;;15.88;0.00
22657;BME280;11495;55.610;12.100;2022-09-23T08:57:08;102517.84;;;15.92;0.00
22657;BME280;11495;55.610;12.100;2022-09-23T08:59:41;102522.56;;;15.97;0.00
22657;BME280;11495;55.610;12.100;2022-09-23T09:02:16;102532.28;;;15.89;0.00
22657;BME280;11495;55.610;12.100;2022-09-23T09:04:43;102529.75;;;15.88;0.00
22657;BME280;11495;55.610;12.100;2022-09-23T09:07:11;102525.06;;;15.93;0.00
22657;BME280;11495;55.610;12.100;2022-09-23T09:09:39;102540.69;;;16.10;0.00
22657;BME280;11495;55.610;12.100;2022-09-23T09:12:11;102544.59;;;16.14;0.00
22657;BME280;11495;55.610;12.100;2022-09-23T09:17:13;102549.72;;;16.42;0.00
22657;BME280;11495;55.610;12.100;2022-09-23T09:19:53;102554.72;;;16.45;0.00
22657;BME280;11495;55.610;12.100;2022-09-23T09:25:16;102579.44;;;16.42;0.00
22657;BME280;11495;55.610;12.100;2022-09-23T09:27:43;102576.94;;;16.45;0.00
22657;BME280;11495;55.610;12.100;2022-09-23T09:30:12;102572.22;;;16.51;0.00
22657;BME280;11495;55.610;12.100;2022-09-23T09:32:44;102580.78;;;16.34;0.00
22657;BME280;11495;55.610;12.100;2022-09-23T09:35:19;102568.59;;;16.45;0.00
22657;BME280;11495;55.610;12.100;2022-09-23T09:37:47;102556.72;;;16.65;0.00
22657;BME280;11495;55.610;12.100;2022-09-23T09:40:13;102574.56;;;16.79;0.00
22657;BME280;11495;55.610;12.100;2022-09-23T09:42:41;102567.38;;;16.99;0.00
22657;BME280;11495;55.610;12.100;2022-09-23T09:47:42;102579.63;;;17.03;0.00
22657;BME280;11495;55.610;12.100;2022-09-23T09:53:13;102584.06;;;16.99;0.00
22657;BME280;11495;55.610;12.100;2022-09-23T09:55:38;102562.94;;;17.18;0.00
22657;BME280;11495;55.610;12.100;2022-09-23T09:58:03;102574.09;;;17.38;0.00
22657;BME280;11495;55.610;12.100;2022-09-23T10:02:56;102578.25;;;17.66;0.00
22657;BME280;11495;55.610;12.100;2022-09-23T10:05:33;102513.69;;;17.75;0.00
22657;BME280;11495;55.610;12.100;2022-09-23T10:10:50;102271.75;;;17.83;0.00
22657;BME280;11495;55.610;12.100;2022-09-23T10:13:18;102154.66;;;18.04;0.00
22657;BME280;11495;55.610;12.100;2022-09-23T10:15:45;102051.75;;;17.93;0.00
22657;BME280;11495;55.610;12.100;2022-09-23T10:18:15;101936.47;;;17.76;0.00
22657;BME280;11495;55.610;12.100;2022-09-23T10:20:43;101863.13;;;17.61;0.00
22657;BME280;11495;55.610;12.100;2022-09-23T10:23:17;101805.81;;;17.84;0.00
22657;BME280;11495;55.610;12.100;2022-09-23T10:25:54;101613.72;;;18.03;0.00
22657;BME280;11495;55.610;12.100;2022-09-23T10:31:20;101090.50;;;18.60;0.00
22657;BME280;11495;55.610;12.100;2022-09-23T10:33:49;100962.22;;;19.00;0.00
22657;BME280;11495;55.610;12.100;2022-09-23T10:36:16;100908.78;;;18.98;0.00
22657;BME280;11495;55.610;12.100;2022-09-23T10:38:42;100869.22;;;19.13;0.00
22657;BME280;11495;55.610;12.100;2022-09-23T10:41:17;100884.44;;;19.24;0.00
22657;BME280;11495;55.610;12.100;2022-09-23T10:44:25;100887.66;;;19.44;0.00
22657;BME280;11495;55.610;12.100;2022-09-23T10:47:18;100934.81;;;19.83;0.00
22657;BME280;11495;55.610;12.100;2022-09-23T10:50:01;101176.00;;;20.08;0.00
22657;BME280;11495;55.610;12.100;2022-09-23T10:55:49;101156.44;;;20.17;0.00
22657;BME280;11495;55.610;12.100;2022-09-23T11:03:27;101194.91;;;19.85;0.00
22657;BME280;11495;55.610;12.100;2022-09-23T11:11:01;101195.22;;;19.58;0.00
22657;BME280;11495;55.610;12.100;2022-09-23T11:16:23;101194.06;;;19.59;0.00
22657;BME280;11495;55.610;12.100;2022-09-23T11:26:40;101185.13;;;18.65;0.00
22657;BME280;11495;55.610;12.100;2022-09-23T11:29:35;101180.16;;;18.62;0.00
22657;BME280;11495;55.610;12.100;2022-09-23T11:34:48;101166.84;;;18.59;0.00
22657;BME280;11495;55.610;12.100;2022-09-23T11:37:26;101166.38;;;18.88;0.00
22657;BME280;11495;55.610;12.100;2022-09-23T11:42:45;101176.69;;;19.88;0.00
22657;BME280;11495;55.610;12.100;2022-09-23T11:45:19;101180.06;;;20.28;0.00
22657;BME280;11495;55.610;12.100;2022-09-23T11:48:03;101160.69;;;20.79;0.00
22657;BME280;11495;55.610;12.100;2022-09-23T11:50:34;101172.75;;;21.00;0.00
22657;BME280;11495;55.610;12.100;2022-09-23T11:55:46;101161.03;;;20.68;0.00
22657;BME280;11495;55.610;12.100;2022-09-23T11:58:16;101161.72;;;20.65;0.00
22657;BME280;11495;55.610;12.100;2022-09-23T12:00:45;101158.06;;;20.73;0.00
22657;BME280;11495;55.610;12.100;2022-09-23T12:03:15;101160.38;;;20.16;0.00
22657;BME280;11495;55.610;12.100;2022-09-23T12:06:44;101170.78;;;19.89;0.00
22657;BME280;11495;55.610;12.100;2022-09-23T12:08:37;101166.69;;;19.70;0.00
22657;BME280;11495;55.610;12.100;2022-09-23T12:19:01;101145.97;;;19.45;0.00
22657;BME280;11495;55.610;12.100;2022-09-23T12:26:53;101155.72;;;20.46;0.00
22657;BME280;11495;55.610;12.100;2022-09-23T12:29:21;101151.66;;;20.17;0.00
22657;BME280;11495;55.610;12.100;2022-09-23T12:31:48;101144.94;;;20.10;0.00
22657;BME280;11495;55.610;12.100;2022-09-23T12:34:31;101128.28;;;20.31;0.00
22657;BME280;11495;55.610;12.100;2022-09-23T12:37:02;101128.13;;;20.44;0.00
22657;BME280;11495;55.610;12.100;2022-09-23T12:39:31;101137.59;;;20.61;0.00
22657;BME280;11495;55.610;12.100;2022-09-23T12:41:59;101143.44;;;20.21;0.00
22657;BME280;11495;55.610;12.100;2022-09-23T12:44:28;101129.03;;;20.95;0.00
22657;BME280;11495;55.610;12.100;2022-09-23T12:49:37;101138.47;;;20.82;0.00
22657;BME280;11495;55.610;12.100;2022-09-23T12:52:22;101133.16;;;19.61;0.00
22657;BME280;11495;55.610;12.100;2022-09-23T12:54:49;101118.31;;;18.91;0.00
22657;BME280;11495;55.610;12.100;2022-09-23T13:05:24;101121.84;;;19.40;0.00
22657;BME280;11495;55.610;12.100;2022-09-23T13:08:19;101115.75;;;19.38;0.00
22657;BME280;11495;55.610;12.100;2022-09-23T13:10:48;101109.38;;;19.63;0.00
22657;BME280;11495;55.610;12.100;2022-09-23T13:13:19;101105.91;;;19.84;0.00
22657;BME280;11495;55.610;12.100;2022-09-23T13:15:46;101104.94;;;19.71;0.00
22657;BME280;11495;55.610;12.100;2022-09-23T13:20:46;101104.03;;;20.14;0.00
22657;BME280;11495;55.610;12.100;2022-09-23T13:25:41;101107.38;;;19.90;0.00
22657;BME280;11495;55.610;12.100;2022-09-23T13:30:51;101106.69;;;20.02;0.00
22657;BME280;11495;55.610;12.100;2022-09-23T13:33:21;101097.22;;;20.32;0.00
22657;BME280;11495;55.610;12.100;2022-09-23T13:35:50;101099.03;;;20.45;0.00
22657;BME280;11495;55.610;12.100;2022-09-23T13:38:27;101098.53;;;20.43;0.00
22657;BME280;11495;55.610;12.100;2022-09-23T13:40:56;101102.53;;;20.16;0.00
22657;BME280;11495;55.610;12.100;2022-09-23T13:43:56;101091.97;;;19.58;0.00
22657;BME280;11495;55.610;12.100;2022-09-23T13:46:25;101095.06;;;19.13;0.00
22657;BME280;11495;55.610;12.100;2022-09-23T13:48:55;101077.16;;;18.79;0.00
22657;BME280;11495;55.610;12.100;2022-09-23T13:51:32;101072.78;;;18.56;0.00
22657;BME280;11495;55.610;12.100;2022-09-23T13:53:58;101068.09;;;18.65;0.00
22657;BME280;11495;55.610;12.100;2022-09-23T13:56:26;101055.75;;;18.58;0.00
22657;BME280;11495;55.610;12.100;2022-09-23T13:58:51;101057.94;;;18.69;0.00
22657;BME280;11495;55.610;12.100;2022-09-23T14:01:28;101047.44;;;18.66;0.00
22657;BME280;11495;55.610;12.100;2022-09-23T14:03:59;101051.25;;;18.70;0.00
22657;BME280;11495;55.610;12.100;2022-09-23T14:06:31;101034.00;;;18.68;0.00
22657;BME280;11495;55.610;12.100;2022-09-23T14:09:03;101016.37;;;18.42;0.00
22657;BME280;11495;55.610;12.100;2022-09-23T14:11:32;101004.34;;;18.15;0.00
22657;BME280;11495;55.610;12.100;2022-09-23T14:13:59;100987.88;;;17.88;0.00
22657;BME280;11495;55.610;12.100;2022-09-23T14:16:31;100987.50;;;17.81;0.00
22657;BME280;11495;55.610;12.100;2022-09-23T14:18:59;100966.69;;;17.78;0.00
22657;BME280;11495;55.610;12.100;2022-09-23T14:21:34;100976.50;;;17.53;0.00
22657;BME280;11495;55.610;12.100;2022-09-23T14:26:34;100974.00;;;17.21;0.00
22657;BME280;11495;55.610;12.100;2022-09-23T14:29:01;100973.91;;;17.26;0.00
22657;BME280;11495;55.610;12.100;2022-09-23T14:31:27;100980.06;;;17.45;0.00
22657;BME280;11495;55.610;12.100;2022-09-23T14:33:52;100990.41;;;17.53;0.00
22657;BME280;11495;55.610;12.100;2022-09-23T14:36:19;100989.66;;;17.61;0.00
22657;BME280;11495;55.610;12.100;2022-09-23T14:41:49;100977.16;;;17.73;0.00
22657;BME280;11495;55.610;12.100;2022-09-23T14:44:19;100979.00;;;17.86;0.00
22657;BME280;11495;55.610;12.100;2022-09-23T14:46:54;100989.72;;;18.01;0.00
22657;BME280;11495;55.610;12.100;2022-09-23T14:49:20;101002.44;;;17.93;0.00
22657;BME280;11495;55.610;12.100;2022-09-23T14:51:50;101004.59;;;17.96;0.00
22657;BME280;11495;55.610;12.100;2022-09-23T15:00:07;101001.25;;;17.55;0.00
22657;BME280;11495;55.610;12.100;2022-09-23T15:02:34;100988.34;;;17.36;0.00